Port Neches, TX (77651)

2:20 PM CST on December 07, 2016 (GMT -0600)
Port Neches | | Change Station
Active Advisory: Flood Warning

Elev 30 ft 29.98 °N, 93.96 °W | Updated 22 seconds ago

Overcast
Overcast
61.1 °F
Feels Like 61.1 °F
N
0.0
Wind Variable Wind from North
Gusts 4.0 mph

Today
High -- | Low -- °F
--% Chance of Precip.
Yesterday
High -- | Low -- °F
Precip. -- in
Pressure 30.05 in
Visibility 10.0 miles
Clouds Overcast 1600 ft
Dew Point 57 °F
Humidity 85%
Rainfall 0.00 in
Snow Depth Not available.
6:59 AM 5:16 PM
First Quarter, 55% visible
SPECI KBPT 072000Z 04004KT 10SM OVC016 17/12 A3005 RMK AO2 T01670117 $
Pressure 30.05 in
Visibility 10.0 miles
Clouds Overcast 1600 ft
Dew Point 57 °F
Humidity 85%
Rainfall 0.00 in
Snow Depth Not available.
6:59 AM 5:16 PM
First Quarter, 55% visible
SPECI KBPT 072000Z 04004KT 10SM OVC016 17/12 A3005 RMK AO2 T01670117 $

10-Day Weather Forecast

Almanac

Astronomy

Dec. 07, 2016 Rise Set
Actual Time
Civil Twilight
Nautical Twilight
Astronomical Twilight
Moon
Length of Visible Light
Length of Day
Tomorrow will be .
, % of the Moon is Illuminated

Today's Extremes

State Highs State Lows

Community

WunderPhotos

Upload Photos

1,956,169 photos uploaded!

WunderBlog® & News

Nearby

Air Quality

  Air Quality AQ Index Pollutant
Not available.

Snow Depth

Station Depth Elevation

Earthquake Activity

City Distance Mag. Time & Date
Minimum magnitude displayed is 2.5.

Coastal Water Temperatures

Place Temperature

Stations

Nearby Weather Stations

Station Location Temp. Windchill Dew Point Humidity Wind Precip. Elev Updated Type
                   

Watches & Warnings

Flood Warning
Issued: 8:49 AM CST Dec. 7, 2016 – National Weather Service

The Flood Warning continues for
the Pine Island Bayou near Sour Lake.
* Until Thursday evening... or until the warning is cancelled.
* At 7:45 am Wednesday the stage was 26.0 feet.
* Minor flooding is occurring and minor flooding is forecast.
* Flood stage is 25.0 feet.
* Forecast... the river will continue to fall to below flood stage by
Thursday morning.
* Impact... at stages near 25.0 feet... water inundates roads in
lowland areas near the river. Low spots on old Sour Lake Road are
under water.


Lat... Lon 3012 9445 3024 9423 3021 9407 3013 9406 3004 9445